createdAt,value
2022-12-28T00:02:05.954Z,100122.25
2022-12-28T00:04:53.092Z,100112.00
2022-12-28T00:07:40.156Z,100110.19
2022-12-28T00:11:06.672Z,100109.38
2022-12-28T00:13:36.296Z,100106.84
2022-12-28T00:16:29.603Z,100102.56
2022-12-28T00:19:18.552Z,100091.56
2022-12-28T00:22:06.080Z,100086.47
2022-12-28T00:24:53.373Z,100088.19
2022-12-28T00:27:40.443Z,100090.69
2022-12-28T00:30:27.446Z,100086.47
2022-12-28T00:33:16.448Z,100073.75
2022-12-28T00:36:04.275Z,100074.56
2022-12-28T00:38:54.480Z,100061.00
2022-12-28T00:41:41.647Z,100053.38
2022-12-28T00:44:28.605Z,100051.63
2022-12-28T00:47:15.659Z,100049.88
2022-12-28T00:50:04.163Z,100058.31
2022-12-28T00:52:51.831Z,100040.50
2022-12-28T00:55:40.107Z,100043.88
2022-12-28T00:58:27.688Z,100035.31
2022-12-28T01:01:17.593Z,100036.16
2022-12-28T01:04:05.247Z,100027.66
2022-12-28T01:06:53.688Z,100019.09
2022-12-28T01:09:41.015Z,100010.56
2022-12-28T01:12:31.884Z,100003.78
2022-12-28T01:15:21.914Z,99986.69
2022-12-28T01:18:09.277Z,99994.25
2022-12-28T01:20:59.545Z,99974.63
2022-12-28T01:23:49.571Z,99976.25
2022-12-28T01:26:37.021Z,99971.19
2022-12-28T01:29:24.244Z,99966.94
2022-12-28T01:32:11.488Z,99956.66
2022-12-28T01:34:58.524Z,99962.56
2022-12-28T01:37:45.875Z,99961.69
2022-12-28T01:40:34.625Z,99960.78
2022-12-28T01:43:39.055Z,99955.63
2022-12-28T01:46:32.044Z,99943.66
2022-12-28T01:49:24.448Z,99938.47
2022-12-28T01:52:15.901Z,99935.84
2022-12-28T01:55:09.207Z,99942.59
2022-12-28T01:58:01.346Z,99951.06
2022-12-28T02:00:49.005Z,99949.25
2022-12-28T02:03:37.343Z,99953.44
2022-12-28T02:06:24.865Z,99944.03
2022-12-28T02:09:19.382Z,99933.84
2022-12-28T02:12:08.120Z,99928.66
2022-12-28T02:14:56.847Z,99920.13
2022-12-28T02:17:43.967Z,99909.03
2022-12-28T02:20:40.593Z,99894.59
2022-12-28T02:24:02.914Z,99893.75
2022-12-28T02:26:59.137Z,99901.38
2022-12-28T02:30:05.028Z,99897.88
2022-12-28T02:33:01.775Z,99886.88
2022-12-28T02:35:54.224Z,99909.72
2022-12-28T02:38:46.377Z,99905.44
2022-12-28T02:41:36.012Z,99893.53
2022-12-28T02:44:42.342Z,99883.25
2022-12-28T02:47:48.035Z,99884.06
2022-12-28T02:50:45.681Z,99875.63
2022-12-28T02:54:00.240Z,99876.44
2022-12-28T02:56:56.454Z,99867.16
2022-12-28T03:00:03.989Z,99880.72
2022-12-28T03:03:07.582Z,99874.72
2022-12-28T03:06:25.521Z,99864.53
2022-12-28T03:09:22.602Z,99867.09
2022-12-28T03:12:14.336Z,99850.97
2022-12-28T03:15:10.140Z,99848.31
2022-12-28T03:18:22.403Z,99852.59
2022-12-28T03:21:30.074Z,99844.16
2022-12-28T03:24:36.914Z,99841.59
2022-12-28T03:27:42.707Z,99844.16
2022-12-28T03:30:51.799Z,99846.69
2022-12-28T03:33:44.155Z,99844.88
2022-12-28T03:36:44.160Z,99838.97
2022-12-28T03:39:40.064Z,99836.44
2022-12-28T03:42:48.893Z,99824.44
2022-12-28T03:45:46.065Z,99826.25
2022-12-28T03:48:38.344Z,99833.81
2022-12-28T03:51:30.137Z,99832.91
2022-12-28T03:54:21.286Z,99825.28
2022-12-28T03:57:08.357Z,99810.72
2022-12-28T04:00:00.274Z,99809.06
2022-12-28T04:02:47.808Z,99803.06
2022-12-28T04:05:35.319Z,99801.38
2022-12-28T04:08:23.758Z,99789.44
2022-12-28T04:11:13.771Z,99796.09
2022-12-28T04:14:10.335Z,99789.28
2022-12-28T04:17:01.599Z,99786.72
2022-12-28T04:19:48.863Z,99774.81
2022-12-28T04:22:36.045Z,99785.81
2022-12-28T04:25:25.102Z,99780.72
2022-12-28T04:28:13.376Z,99781.53
2022-12-28T04:31:21.033Z,99777.28
2022-12-28T04:34:19.783Z,99776.44
2022-12-28T04:37:14.423Z,99777.28
2022-12-28T04:40:02.581Z,99767.00
2022-12-28T04:42:51.142Z,99762.72
2022-12-28T04:45:39.853Z,99767.81
2022-12-28T04:48:27.462Z,99766.94
2022-12-28T04:51:19.575Z,99768.59
2022-12-28T04:54:07.251Z,99772.84
2022-12-28T04:56:56.511Z,99759.19
2022-12-28T04:59:45.292Z,99762.63
2022-12-28T05:02:33.373Z,99765.13
2022-12-28T05:05:23.187Z,99767.69
2022-12-28T05:08:10.475Z,99766.75
2022-12-28T05:11:01.539Z,99765.94
2022-12-28T05:13:50.756Z,99770.16
2022-12-28T05:16:39.463Z,99773.50
2022-12-28T05:19:27.990Z,99770.06
2022-12-28T05:22:17.236Z,99759.88
2022-12-28T05:25:04.808Z,99757.25
2022-12-28T05:27:51.959Z,99747.03
2022-12-28T05:30:39.073Z,99751.16
2022-12-28T05:33:30.087Z,99737.56
2022-12-28T05:36:19.967Z,99740.97
2022-12-28T05:39:08.435Z,99729.13
2022-12-28T05:42:00.097Z,99731.59
2022-12-28T05:44:47.407Z,99725.69
2022-12-28T05:47:34.508Z,99726.50
2022-12-28T05:50:23.827Z,99719.69
2022-12-28T05:53:11.138Z,99723.13
2022-12-28T05:56:03.805Z,99720.50
2022-12-28T05:58:56.528Z,99723.03
2022-12-28T06:01:45.912Z,99723.03
2022-12-28T06:04:33.200Z,99709.41
2022-12-28T06:07:21.512Z,99709.41
2022-12-28T06:10:10.486Z,99715.31
2022-12-28T06:12:57.938Z,99705.13
2022-12-28T06:15:45.035Z,99720.41
2022-12-28T06:18:32.094Z,99711.88
2022-12-28T06:21:21.997Z,99710.13
2022-12-28T06:24:13.904Z,99706.78
2022-12-28T06:27:01.239Z,99708.41
2022-12-28T06:29:48.179Z,99699.03
2022-12-28T06:32:38.122Z,99693.03
2022-12-28T06:35:25.691Z,99694.75
2022-12-28T06:38:12.950Z,99695.59
2022-12-28T06:41:14.178Z,99686.22
2022-12-28T06:44:02.415Z,99696.41
2022-12-28T06:46:49.458Z,99697.25
2022-12-28T06:49:36.505Z,99684.50
2022-12-28T06:52:23.835Z,99677.66
2022-12-28T06:55:11.633Z,99672.56
2022-12-28T06:58:01.339Z,99680.22
2022-12-28T07:00:48.811Z,99662.38
2022-12-28T07:03:36.288Z,99676.78
2022-12-28T07:06:06.346Z,99674.22
2022-12-28T07:08:35.376Z,99672.41
2022-12-28T07:11:05.257Z,99670.69
2022-12-28T07:13:35.867Z,99662.13
2022-12-28T07:16:07.163Z,99672.22
2022-12-28T07:18:36.193Z,99673.06
2022-12-28T07:21:07.639Z,99678.97
2022-12-28T07:23:36.861Z,99671.31
2022-12-28T07:26:10.814Z,99664.53
2022-12-28T07:28:42.570Z,99668.78
2022-12-28T07:31:14.831Z,99670.44
2022-12-28T07:33:44.468Z,99661.88
2022-12-28T07:36:17.492Z,99661.88
2022-12-28T07:38:46.484Z,99669.53
2022-12-28T07:41:17.488Z,99666.97
2022-12-28T07:43:47.679Z,99668.63
2022-12-28T07:46:19.750Z,99668.63
2022-12-28T07:48:49.085Z,99658.44
2022-12-28T07:51:20.275Z,99668.63
2022-12-28T07:53:51.432Z,99670.25
2022-12-28T07:56:21.320Z,99661.69
2022-12-28T07:58:52.235Z,99661.69
2022-12-28T08:01:23.267Z,99657.41
2022-12-28T08:03:56.364Z,99653.97
2022-12-28T08:06:26.668Z,99649.72
2022-12-28T08:09:00.304Z,99652.19
2022-12-28T08:11:32.739Z,99649.72
2022-12-28T08:14:04.233Z,99646.22
2022-12-28T08:16:36.187Z,99645.44
2022-12-28T08:19:05.618Z,99642.88
2022-12-28T08:21:37.987Z,99642.06
2022-12-28T08:24:08.296Z,99643.59
2022-12-28T08:26:39.277Z,99644.44
2022-12-28T08:29:13.197Z,99640.16
2022-12-28T08:31:44.782Z,99646.09
2022-12-28T08:34:16.937Z,99634.16
2022-12-28T08:36:45.629Z,99629.84
2022-12-28T08:39:14.853Z,99644.25
2022-12-28T08:41:43.524Z,99638.34
2022-12-28T08:44:13.714Z,99638.25
2022-12-28T08:46:42.480Z,99631.41
2022-12-28T08:49:11.210Z,99630.63
2022-12-28T08:51:41.875Z,99623.69
2022-12-28T08:54:13.643Z,99623.69
2022-12-28T08:56:44.789Z,99635.53
2022-12-28T08:59:17.037Z,99631.25
2022-12-28T09:01:47.034Z,99621.03
2022-12-28T09:04:18.425Z,99624.44
2022-12-28T09:06:47.235Z,99626.13
2022-12-28T09:09:19.306Z,99624.38
2022-12-28T09:11:48.649Z,99621.75
2022-12-28T09:14:23.588Z,99616.56
2022-12-28T09:16:54.373Z,99619.94
2022-12-28T09:19:23.509Z,99619.75
2022-12-28T09:21:53.851Z,99612.91
2022-12-28T09:24:23.019Z,99620.47
2022-12-28T09:26:53.175Z,99617.78
2022-12-28T09:29:23.495Z,99611.75
2022-12-28T09:31:52.091Z,99607.31
2022-12-28T09:34:38.195Z,99605.59
2022-12-28T09:37:08.563Z,99597.00
2022-12-28T09:39:37.555Z,99601.22
2022-12-28T09:42:13.772Z,99599.41
2022-12-28T09:45:00.670Z,99594.31
2022-12-28T09:47:38.844Z,99594.22
2022-12-28T09:50:30.385Z,99595.03
2022-12-28T09:53:24.605Z,99596.69
2022-12-28T09:56:02.385Z,99593.22
2022-12-28T09:58:33.767Z,99583.84
2022-12-28T10:01:05.895Z,99576.19
2022-12-28T10:03:38.506Z,99585.38
2022-12-28T10:06:13.599Z,99583.56
2022-12-28T10:08:46.838Z,99586.94
2022-12-28T10:11:20.570Z,99579.19
2022-12-28T10:13:55.649Z,99579.09
2022-12-28T10:16:30.287Z,99578.19
2022-12-28T10:18:59.004Z,99583.22
2022-12-28T10:21:33.372Z,99573.72
2022-12-28T10:24:31.042Z,99580.47
2022-12-28T10:26:57.323Z,99577.03
2022-12-28T10:29:26.976Z,99558.25
2022-12-28T10:32:02.887Z,99566.63
2022-12-28T10:34:34.240Z,99550.41
2022-12-28T10:37:14.693Z,99551.13
2022-12-28T10:39:51.577Z,99539.22
2022-12-28T10:42:27.653Z,99538.31
2022-12-28T10:45:07.776Z,99536.38
2022-12-28T10:47:45.102Z,99531.19
2022-12-28T10:50:43.901Z,99520.97
2022-12-28T10:53:25.512Z,99520.06
2022-12-28T10:56:18.302Z,99523.47
2022-12-28T10:58:48.962Z,99512.41
2022-12-28T11:01:25.061Z,99510.59
2022-12-28T11:04:06.772Z,99513.16
2022-12-28T11:06:37.511Z,99506.31
2022-12-28T11:09:19.423Z,99507.06
2022-12-28T11:11:50.091Z,99502.75
2022-12-28T11:14:31.789Z,99498.47
2022-12-28T11:17:14.595Z,99487.44
2022-12-28T11:19:45.395Z,99483.16
2022-12-28T11:22:18.201Z,99492.44
2022-12-28T11:24:46.862Z,99478.88
2022-12-28T11:27:20.007Z,99487.25
2022-12-28T11:29:53.204Z,99497.38
2022-12-28T11:32:26.319Z,99476.94
2022-12-28T11:34:57.778Z,99478.59
2022-12-28T11:37:26.582Z,99477.78
2022-12-28T11:39:55.696Z,99469.22
2022-12-28T11:42:59.632Z,99460.72
2022-12-28T11:45:52.794Z,99471.84
2022-12-28T11:48:58.747Z,99460.03
2022-12-28T11:51:31.174Z,99460.03
2022-12-28T11:54:01.756Z,99448.88
2022-12-28T11:56:59.685Z,99453.97
2022-12-28T11:59:30.142Z,99442.97
2022-12-28T12:02:00.360Z,99440.31
2022-12-28T12:04:39.353Z,99436.03
2022-12-28T12:07:31.765Z,99435.94
2022-12-28T12:10:36.328Z,99423.28
2022-12-28T12:13:42.678Z,99418.19
2022-12-28T12:16:25.814Z,99427.44
2022-12-28T12:18:57.511Z,99423.19
2022-12-28T12:21:34.530Z,99411.22
2022-12-28T12:24:20.029Z,99399.28
2022-12-28T12:26:53.802Z,99403.47
2022-12-28T12:29:29.231Z,99399.22
2022-12-28T12:32:03.124Z,99398.28
2022-12-28T12:34:42.871Z,99389.81
2022-12-28T12:37:47.618Z,99390.63
2022-12-28T12:40:38.217Z,99385.50
2022-12-28T12:43:39.195Z,99383.91
2022-12-28T12:46:59.237Z,99383.06
2022-12-28T12:49:52.661Z,99379.59
2022-12-28T12:52:42.032Z,99365.09
2022-12-28T12:55:28.913Z,99358.28
2022-12-28T12:58:03.269Z,99353.97
2022-12-28T13:00:48.501Z,99349.78
2022-12-28T13:03:33.565Z,99357.34
2022-12-28T13:06:05.897Z,99354.78
2022-12-28T13:08:43.123Z,99342.84
2022-12-28T13:11:15.461Z,99360.72
2022-12-28T13:13:48.471Z,99344.56
2022-12-28T13:16:20.944Z,99353.06
2022-12-28T13:18:56.145Z,99348.78
2022-12-28T13:21:26.982Z,99338.56
2022-12-28T13:23:56.346Z,99336.84
2022-12-28T13:26:30.479Z,99339.41
2022-12-28T13:29:01.945Z,99339.41
2022-12-28T13:31:35.443Z,99326.63
2022-12-28T13:34:07.751Z,99324.09
2022-12-28T13:36:36.587Z,99323.25
2022-12-28T13:39:12.899Z,99328.34
2022-12-28T13:41:50.858Z,99320.69
2022-12-28T13:44:33.802Z,99302.81
2022-12-28T13:47:10.731Z,99295.16
2022-12-28T13:49:45.622Z,99303.66
2022-12-28T13:52:20.626Z,99298.56
2022-12-28T13:54:56.879Z,99300.28
2022-12-28T13:57:46.773Z,99298.56
2022-12-28T14:00:19.275Z,99299.47
2022-12-28T14:02:49.655Z,99302.81
2022-12-28T14:05:21.766Z,99297.72
2022-12-28T14:07:52.239Z,99274.66
2022-12-28T14:10:22.102Z,99284.06
2022-12-28T14:12:52.927Z,99274.66
2022-12-28T14:15:22.268Z,99270.38
2022-12-28T14:17:52.797Z,99265.28
2022-12-28T14:20:21.537Z,99264.34
2022-12-28T14:22:50.837Z,99257.63
2022-12-28T14:25:23.508Z,99266.09
2022-12-28T14:28:00.270Z,99252.41
2022-12-28T14:30:32.431Z,99272.00
2022-12-28T14:33:15.323Z,99261.78
2022-12-28T14:35:54.077Z,99260.97
2022-12-28T14:38:25.207Z,99258.41
2022-12-28T14:40:55.900Z,99261.78
2022-12-28T14:43:28.555Z,99264.34
2022-12-28T14:46:06.991Z,99259.22
2022-12-28T14:48:40.806Z,99250.66
2022-12-28T14:51:27.080Z,99249.84
2022-12-28T14:54:19.808Z,99246.47
2022-12-28T14:56:53.104Z,99248.94
2022-12-28T14:59:28.849Z,99242.09
2022-12-28T15:01:57.621Z,99241.19
2022-12-28T15:04:30.276Z,99235.25
2022-12-28T15:06:58.954Z,99238.53
2022-12-28T15:09:27.791Z,99233.44
2022-12-28T15:12:10.824Z,99239.34
2022-12-28T15:14:41.215Z,99241.09
2022-12-28T15:17:11.298Z,99230.75
2022-12-28T15:19:40.361Z,99235.88
2022-12-28T15:22:09.083Z,99240.97
2022-12-28T15:24:38.930Z,99226.56
2022-12-28T15:27:07.639Z,99237.50
2022-12-28T15:32:26.244Z,99229.03
2022-12-28T15:34:54.954Z,99219.66
2022-12-28T15:37:23.598Z,99222.19
2022-12-28T15:39:52.209Z,99214.53
2022-12-28T15:42:20.860Z,99211.06
2022-12-28T15:44:51.185Z,99209.44
2022-12-28T15:47:21.025Z,99205.97
2022-12-28T15:49:50.991Z,99203.41
2022-12-28T15:52:19.624Z,99194.81
2022-12-28T15:54:48.274Z,99194.81
2022-12-28T15:57:16.947Z,99188.00
2022-12-28T15:59:45.615Z,99192.28
2022-12-28T16:02:14.526Z,99198.09
2022-12-28T16:04:43.925Z,99187.91
2022-12-28T16:07:14.090Z,99185.44
2022-12-28T16:09:42.752Z,99181.16
2022-12-28T16:12:11.389Z,99176.84
2022-12-28T16:14:40.578Z,99170.03
2022-12-28T16:17:09.255Z,99168.38
2022-12-28T16:19:38.066Z,99166.63
2022-12-28T16:22:06.666Z,99160.72
2022-12-28T16:24:37.381Z,99157.25
2022-12-28T16:27:06.584Z,99164.09
2022-12-28T16:29:35.183Z,99164.91
2022-12-28T16:32:03.854Z,99162.38
2022-12-28T16:34:32.775Z,99156.44
2022-12-28T16:37:01.383Z,99153.88
2022-12-28T16:39:31.114Z,99147.97
2022-12-28T16:42:01.129Z,99150.50
2022-12-28T16:44:29.797Z,99156.44
2022-12-28T16:46:59.754Z,99152.16
2022-12-28T16:49:29.690Z,99157.25
2022-12-28T16:51:58.766Z,99158.97
2022-12-28T16:54:28.763Z,99142.75
2022-12-28T16:56:57.541Z,99149.59
2022-12-28T16:59:29.582Z,99155.50
2022-12-28T17:01:59.207Z,99159.72
2022-12-28T17:04:28.467Z,99161.34
2022-12-28T17:06:57.100Z,99155.41
2022-12-28T17:09:29.182Z,99151.94
2022-12-28T17:11:58.581Z,99135.81
2022-12-28T17:14:37.856Z,99146.84
2022-12-28T17:17:07.571Z,99140.81
2022-12-28T17:19:36.853Z,99136.63
2022-12-28T17:22:06.402Z,99135.72
2022-12-28T17:24:35.467Z,99127.13
2022-12-28T17:27:08.450Z,99132.13
2022-12-28T17:29:40.390Z,99124.59
2022-12-28T17:32:09.828Z,99122.72
2022-12-28T17:34:39.172Z,99115.88
2022-12-28T17:37:08.051Z,99111.59
2022-12-28T17:39:40.377Z,99119.25
2022-12-28T17:42:10.413Z,99113.25
2022-12-28T17:44:40.427Z,99101.28
2022-12-28T17:47:09.801Z,99097.09
2022-12-28T17:49:38.469Z,99092.81
2022-12-28T17:52:07.750Z,99080.88
2022-12-28T17:54:36.415Z,99096.06
2022-12-28T17:57:05.122Z,99093.53
2022-12-28T17:59:33.855Z,99085.06
2022-12-28T18:02:05.231Z,99081.59
2022-12-28T18:04:34.606Z,99077.28
2022-12-28T18:07:03.383Z,99076.38
2022-12-28T18:09:32.167Z,99066.16
2022-12-28T18:12:01.016Z,99055.94
2022-12-28T18:14:29.940Z,99060.22
2022-12-28T18:16:58.739Z,99048.28
2022-12-28T18:19:28.871Z,99040.63
2022-12-28T18:21:57.529Z,99040.63
2022-12-28T18:24:26.180Z,99030.41
2022-12-28T18:26:54.776Z,99025.31
2022-12-28T18:29:23.432Z,99020.19
2022-12-28T18:31:52.042Z,99015.09
2022-12-28T18:34:20.670Z,99001.38
2022-12-28T18:36:50.652Z,99011.59
2022-12-28T18:39:19.267Z,99000.47
2022-12-28T18:41:47.866Z,98988.63
2022-12-28T18:44:17.470Z,98987.69
2022-12-28T18:46:46.227Z,98987.69
2022-12-28T18:49:14.968Z,98983.44
2022-12-28T18:51:43.677Z,98989.34
2022-12-28T18:54:13.710Z,98985.97
2022-12-28T18:56:42.419Z,98985.97
2022-12-28T18:59:11.284Z,98980.88
2022-12-28T19:02:06.041Z,98980.78
2022-12-28T19:04:30.082Z,98977.38
2022-12-28T19:06:58.875Z,98975.66
2022-12-28T19:09:28.923Z,98972.16
2022-12-28T19:11:57.648Z,98973.81
2022-12-28T19:14:26.533Z,98976.34
2022-12-28T19:16:55.158Z,98958.47
2022-12-28T19:19:23.792Z,98950.72
2022-12-28T19:21:58.497Z,98958.25
2022-12-28T19:24:29.014Z,98948.88
2022-12-28T19:26:57.663Z,98944.56
2022-12-28T19:29:26.312Z,98946.22
2022-12-28T19:31:55.559Z,98939.34
2022-12-28T19:34:24.293Z,98942.75
2022-12-28T19:36:52.996Z,98943.44
2022-12-28T19:39:21.631Z,98935.75
2022-12-28T19:41:51.659Z,98929.75
2022-12-28T19:44:21.151Z,98938.22
2022-12-28T19:46:50.150Z,98929.53
2022-12-28T19:49:18.922Z,98931.28
2022-12-28T19:51:47.587Z,98938.00
2022-12-28T19:54:20.942Z,98940.47
2022-12-28T19:56:50.968Z,98934.44
2022-12-28T19:59:19.775Z,98909.69
2022-12-28T20:01:48.724Z,98934.44
2022-12-28T20:04:17.558Z,98920.72
2022-12-28T20:06:47.104Z,98924.00
2022-12-28T20:09:16.324Z,98901.84
2022-12-28T20:11:45.887Z,98906.09
2022-12-28T20:14:24.674Z,98900.91
2022-12-28T20:16:53.802Z,98894.06
2022-12-28T20:19:22.548Z,98885.47
2022-12-28T20:21:51.249Z,98897.34
2022-12-28T20:24:21.843Z,98890.47
2022-12-28T20:26:52.166Z,98883.63
2022-12-28T20:29:23.977Z,98868.31
2022-12-28T20:31:52.716Z,98876.66
2022-12-28T20:34:21.405Z,98868.09
2022-12-28T20:36:50.524Z,98862.19
2022-12-28T20:39:19.123Z,98872.28
2022-12-28T20:42:05.156Z,98872.16
2022-12-28T20:44:35.154Z,98850.88
2022-12-28T20:47:04.002Z,98852.53
2022-12-28T20:49:33.143Z,98851.59
2022-12-28T20:52:01.788Z,98856.59
2022-12-28T20:54:30.553Z,98853.13
2022-12-28T20:56:59.197Z,98853.94
2022-12-28T20:59:28.179Z,98850.44
2022-12-28T21:01:58.431Z,98840.13
2022-12-28T21:04:45.864Z,98842.69
2022-12-28T21:07:33.233Z,98844.44
2022-12-28T21:10:20.321Z,98834.09
2022-12-28T21:13:07.363Z,98834.91
2022-12-28T21:15:54.587Z,98828.97
2022-12-28T21:18:43.404Z,98831.41
2022-12-28T21:21:30.947Z,98823.63
2022-12-28T21:24:18.062Z,98817.72
2022-12-28T21:27:05.496Z,98807.50
2022-12-28T21:29:52.557Z,98815.06
2022-12-28T21:32:39.725Z,98820.97
2022-12-28T21:35:33.896Z,98820.97
2022-12-28T21:38:21.845Z,98824.34
2022-12-28T21:41:11.256Z,98815.72
2022-12-28T21:43:58.151Z,98825.16
2022-12-28T21:46:45.482Z,98820.84
2022-12-28T21:49:33.326Z,98810.63
2022-12-28T21:52:22.404Z,98827.59
2022-12-28T21:55:28.324Z,98821.56
2022-12-28T21:58:15.741Z,98824.22
2022-12-28T22:01:20.354Z,98823.31
2022-12-28T22:04:24.885Z,98819.94
2022-12-28T22:07:14.460Z,98825.97
2022-12-28T22:10:20.239Z,98824.22
2022-12-28T22:13:07.695Z,98822.59
2022-12-28T22:15:57.925Z,98828.50
2022-12-28T22:19:01.767Z,98828.41
2022-12-28T22:21:50.075Z,98820.03
2022-12-28T22:24:37.201Z,98833.53
2022-12-28T22:27:26.140Z,98825.97
2022-12-28T22:30:14.672Z,98835.25
2022-12-28T22:33:02.150Z,98832.69
2022-12-28T22:35:49.536Z,98818.28
2022-12-28T22:38:36.580Z,98826.66
2022-12-28T22:41:23.819Z,98819.94
2022-12-28T22:44:12.343Z,98821.56
2022-12-28T22:46:59.418Z,98820.75
2022-12-28T22:49:46.536Z,98828.41
2022-12-28T22:52:33.702Z,98818.19
2022-12-28T22:55:20.821Z,98814.69
2022-12-28T22:58:09.289Z,98797.66
2022-12-28T23:01:07.617Z,98808.66
2022-12-28T23:03:54.959Z,98803.56
2022-12-28T23:06:42.498Z,98795.09
2022-12-28T23:09:29.820Z,98793.34
2022-12-28T23:12:16.872Z,98789.03
2022-12-28T23:15:19.961Z,98794.06
2022-12-28T23:18:22.418Z,98781.34
2022-12-28T23:21:37.078Z,98774.53
2022-12-28T23:24:42.071Z,98778.00
2022-12-28T23:27:34.724Z,98778.81
2022-12-28T23:30:23.402Z,98774.53
2022-12-28T23:33:12.097Z,98770.22
2022-12-28T23:36:03.609Z,98775.22
2022-12-28T23:38:51.136Z,98776.84
2022-12-28T23:41:50.354Z,98777.56
2022-12-28T23:44:37.618Z,98770.81
2022-12-28T23:47:25.010Z,98757.91
2022-12-28T23:50:15.405Z,98773.25
2022-12-28T23:53:02.506Z,98753.59
2022-12-28T23:55:49.743Z,98750.13
2022-12-28T23:58:36.847Z,98739.00
